Portada
METAR-TAF:

METAR-TAF

Aeropuertos :

Hugoton, Kansas, Estados Unidos

latitud: 37-09-47N, longitud: 101-22-14W, altitud: 955 m

Observación

El informe se hizo hace 5 minutos, a las 07:15 UTC
Viento 21 kt del sur con ráfagas de 27 kt
Temperatura 25°C
Humedad 54%
Presión 1010 hPa
Visibilidad: 16.1 km
Cielo despejado

METAR: KHQG 070715Z AUTO 18021G27KT 10SM CLR 25/15 A2983 RMK AO2 T02480148

Hora: 02:20 (07:20 UTC)


TAF: falta

Observaciones y pronósticos meteorológicos de más de 4000 aeropuertos (mensajes METAR y TAF).

Los puntos amarillos y rojos representan las estaciones disponibles.

Ponga el ratón en el punto deseado para ver el nombre de la estación.

Haga clic para ver las observaciones y los pronósticos meteorológicos.

Para cambiar el mapa : haga clic en los botones verdes con una cruz de color negro para hacer un zoom, en el botón verde con un guión para alejar o en las flechas verdes para mapas adyacentes.


METAR-TAF: